Time;durP1;ratioP1;P1;durP2;ratioP2;P2;SDS_P1;SDS_P2;PMS_P1;PMS_P2;Temp;Humidity;BMP_temperature;BMP_pressure;BME280_temperature;BME280_humidity;BME280_pressure;Samples;Min_cycle;Max_cycle;Signal;HPM_P1;HPM_P2
2022/07/21 00:01:57;;;;;;;14.30;9.10;;;;;;;19.87;100.00;96754.75;4972501;28;20039;-74
2022/07/21 00:04:23;;;;;;;12.35;8.63;;;;;;;19.69;100.00;96759.97;4974560;28;20721;-74
2022/07/21 00:06:48;;;;;;;13.13;8.32;;;;;;;19.73;100.00;96771.00;4973187;28;20026;-74
2022/07/21 00:09:15;;;;;;;12.50;8.82;;;;;;;19.74;100.00;96794.34;4974221;28;20440;-74
2022/07/21 00:11:41;;;;;;;12.77;7.35;;;;;;;19.73;100.00;96812.53;4973621;28;20053;-74
2022/07/21 00:14:08;;;;;;;10.02;7.47;;;;;;;19.60;100.00;96798.94;4973043;28;20066;-74
2022/07/21 00:16:34;;;;;;;11.52;6.95;;;;;;;19.28;100.00;96788.84;4950301;28;20035;-74
2022/07/21 00:19:00;;;;;;;14.88;7.30;;;;;;;18.99;100.00;96792.56;4973730;28;20188;-74
2022/07/21 00:21:27;;;;;;;11.80;6.80;;;;;;;19.27;100.00;96807.03;4974971;28;20057;-74
2022/07/21 00:23:53;;;;;;;11.02;7.22;;;;;;;19.35;100.00;96809.06;4954863;28;20038;-74
2022/07/21 00:26:18;;;;;;;10.65;6.60;;;;;;;19.35;100.00;96825.34;4976205;28;20045;-74
2022/07/21 00:28:44;;;;;;;8.52;6.55;;;;;;;19.18;100.00;96844.06;4974243;28;20050;-74
2022/07/21 00:31:09;;;;;;;8.57;6.15;;;;;;;19.09;100.00;96835.00;4956846;28;20044;-74
2022/07/21 00:33:35;;;;;;;11.18;7.35;;;;;;;19.06;100.00;96822.81;4957173;28;20053;-74
2022/07/21 00:36:00;;;;;;;9.10;6.78;;;;;;;19.12;100.00;96824.34;4974446;28;20120;-74
2022/07/21 00:38:26;;;;;;;14.52;7.20;;;;;;;19.14;100.00;96822.19;4956152;28;20413;-74
2022/07/21 00:40:53;;;;;;;9.75;6.55;;;;;;;19.04;100.00;96824.22;4973213;28;20074;-74
2022/07/21 00:43:19;;;;;;;11.07;6.60;;;;;;;19.03;100.00;96841.59;4974336;28;20045;-74
2022/07/21 00:45:44;;;;;;;13.02;6.93;;;;;;;19.00;100.00;96847.59;4957074;28;20046;-74
2022/07/21 00:48:10;;;;;;;13.35;7.13;;;;;;;18.96;100.00;96849.28;4973113;28;20049;-74
2022/07/21 00:50:35;;;;;;;16.55;8.27;;;;;;;18.97;100.00;96853.59;4973972;28;20034;-74
2022/07/21 00:53:01;;;;;;;12.00;7.15;;;;;;;18.94;100.00;96849.56;4956008;28;20049;-74
2022/07/21 00:55:26;;;;;;;12.85;7.68;;;;;;;18.81;100.00;96834.81;4976471;28;20034;-74
2022/07/21 00:57:53;;;;;;;14.90;7.85;;;;;;;18.80;100.00;96846.78;4977698;28;20049;-74
2022/07/21 01:00:25;;;;;;;16.15;7.60;;;;;;;18.70;100.00;96846.09;4959496;28;20165;-74
2022/07/21 01:02:51;;;;;;;11.93;7.45;;;;;;;18.50;100.00;96828.16;4978312;28;20062;-74
2022/07/21 01:05:18;;;;;;;12.65;7.55;;;;;;;18.47;100.00;96816.00;4954637;28;20035;-74
2022/07/21 01:07:47;;;;;;;11.60;8.13;;;;;;;18.20;100.00;96808.47;4978643;28;20501;-74
2022/07/21 01:10:14;;;;;;;11.68;7.63;;;;;;;18.05;100.00;96809.47;4978288;28;20673;-74
2022/07/21 01:12:40;;;;;;;14.52;8.15;;;;;;;18.12;100.00;96800.16;4975834;28;20049;-75
2022/07/21 01:15:08;;;;;;;13.30;7.82;;;;;;;18.29;100.00;96814.06;4976835;28;20397;-74
2022/07/21 01:17:35;;;;;;;13.38;8.52;;;;;;;18.29;100.00;96811.38;4977754;28;20045;-74
2022/07/21 01:20:07;;;;;;;16.15;8.30;;;;;;;18.24;100.00;96823.06;4976122;28;20050;-74
2022/07/21 01:22:35;;;;;;;12.15;8.05;;;;;;;18.03;100.00;96827.88;4977731;28;20038;-74
2022/07/21 01:25:00;;;;;;;11.23;7.90;;;;;;;18.00;100.00;96827.66;4978172;28;20038;-74
2022/07/21 01:27:27;;;;;;;13.40;8.02;;;;;;;17.92;100.00;96820.97;4975923;28;20073;-74
2022/07/21 01:29:53;;;;;;;10.80;8.35;;;;;;;17.84;100.00;96835.13;4976425;28;20528;-74
2022/07/21 01:32:19;;;;;;;11.02;8.13;;;;;;;17.71;100.00;96842.00;4976899;28;20042;-74
2022/07/21 01:34:44;;;;;;;11.18;7.75;;;;;;;17.69;100.00;96846.06;4959915;28;20105;-74
2022/07/21 01:37:10;;;;;;;15.45;8.65;;;;;;;17.74;100.00;96846.03;4976914;28;20080;-74
2022/07/21 01:42:22;;;;;;;13.98;8.48;;;;;;;17.67;100.00;96832.81;4976571;28;20114;-74
2022/07/21 01:44:49;;;;;;;12.63;8.52;;;;;;;17.62;100.00;96837.47;4976490;28;20109;-74
2022/07/21 01:47:17;;;;;;;12.70;9.50;;;;;;;17.49;100.00;96834.31;4975472;28;20096;-74
2022/07/21 01:49:45;;;;;;;14.75;9.02;;;;;;;17.43;100.00;96845.44;4975333;28;20042;-74
2022/07/21 01:52:11;;;;;;;12.13;9.18;;;;;;;17.36;100.00;96855.81;4976408;28;20072;-74
2022/07/21 01:54:37;;;;;;;16.50;9.63;;;;;;;17.37;100.00;96868.25;4977361;28;20034;-74
2022/07/21 01:57:04;;;;;;;12.20;8.80;;;;;;;17.50;100.00;96860.25;4976211;28;20597;-74
2022/07/21 01:59:30;;;;;;;13.57;8.35;;;;;;;17.59;100.00;96868.59;4975931;28;20081;-74
2022/07/21 02:01:55;;;;;;;11.50;8.50;;;;;;;17.65;100.00;96866.66;4976416;28;20592;-74
2022/07/21 02:04:21;;;;;;;14.70;8.40;;;;;;;17.64;100.00;96857.72;4976655;28;20357;-74
2022/07/21 02:06:46;;;;;;;13.65;8.15;;;;;;;17.71;100.00;96857.44;4976150;28;20057;-74
2022/07/21 02:09:12;;;;;;;12.70;8.57;;;;;;;17.73;100.00;96860.66;4974989;28;20034;-74
2022/07/21 02:11:38;;;;;;;12.55;8.38;;;;;;;17.81;100.00;96855.44;4975927;28;20121;-74
2022/07/21 02:14:03;;;;;;;12.93;8.48;;;;;;;17.86;100.00;96862.72;4976005;28;20498;-74
2022/07/21 02:16:29;;;;;;;10.85;8.27;;;;;;;17.83;100.00;96863.28;4977762;28;20046;-75
2022/07/21 02:18:54;;;;;;;12.07;7.30;;;;;;;17.80;100.00;96861.94;4975554;28;20453;-74
2022/07/21 02:21:20;;;;;;;10.13;7.60;;;;;;;17.78;100.00;96855.19;4977395;28;20038;-74
2022/07/21 02:23:46;;;;;;;12.20;7.38;;;;;;;17.84;100.00;96851.38;4974462;28;20056;-74
2022/07/21 02:26:11;;;;;;;9.85;6.95;;;;;;;17.80;100.00;96861.13;4976003;28;20096;-74
2022/07/21 02:28:37;;;;;;;9.90;7.25;;;;;;;17.70;100.00;96869.31;4976445;28;20341;-74
2022/07/21 02:31:02;;;;;;;13.32;7.18;;;;;;;17.65;100.00;96858.53;4977046;28;20134;-74
2022/07/21 02:33:28;;;;;;;11.90;7.40;;;;;;;17.65;100.00;96859.34;4974924;28;20066;-74
2022/07/21 02:35:53;;;;;;;9.63;7.13;;;;;;;17.61;100.00;96846.66;4976671;28;20052;-74
2022/07/21 02:38:19;;;;;;;12.05;7.63;;;;;;;17.65;100.00;96863.94;4974723;28;20031;-74
2022/07/21 02:40:44;;;;;;;10.07;7.53;;;;;;;17.61;100.00;96865.63;4975463;28;20130;-75
2022/07/21 02:43:11;;;;;;;13.05;7.78;;;;;;;17.54;100.00;96866.75;4976470;28;20473;-74
2022/07/21 02:45:37;;;;;;;10.45;7.35;;;;;;;17.53;100.00;96867.84;4975101;28;20045;-74
2022/07/21 02:48:08;;;;;;;12.07;8.30;;;;;;;17.53;100.00;96862.44;4973736;28;20217;-74
2022/07/21 02:50:39;;;;;;;10.23;7.38;;;;;;;17.57;100.00;96851.81;4959147;28;20088;-74
2022/07/21 02:53:11;;;;;;;14.73;8.48;;;;;;;17.55;100.00;96854.81;4958017;28;20752;-74
2022/07/21 02:55:37;;;;;;;9.98;8.02;;;;;;;17.52;100.00;96866.22;4974908;28;20034;-74
2022/07/21 02:58:05;;;;;;;11.25;7.53;;;;;;;17.61;100.00;96847.47;4974626;28;20034;-74
2022/07/21 03:00:30;;;;;;;13.65;8.63;;;;;;;17.69;100.00;96848.75;4974399;28;20034;-74
2022/07/21 03:02:56;;;;;;;11.93;7.28;;;;;;;17.70;100.00;96850.38;4974538;28;20375;-74
2022/07/21 03:05:21;;;;;;;9.75;7.30;;;;;;;17.66;100.00;96844.72;4957817;28;20130;-74
2022/07/21 03:07:46;;;;;;;10.40;7.55;;;;;;;17.60;100.00;96842.34;4975327;28;20031;-74
2022/07/21 03:10:12;;;;;;;10.77;6.78;;;;;;;17.57;100.00;96842.91;4975409;28;20118;-74
2022/07/21 03:12:37;;;;;;;11.50;7.03;;;;;;;17.51;100.00;96836.75;4974360;28;20137;-74
2022/07/21 03:15:03;;;;;;;11.40;7.57;;;;;;;17.53;100.00;96843.47;4975305;28;20074;-74
2022/07/21 03:17:28;;;;;;;12.45;7.30;;;;;;;17.52;100.00;96841.88;4974881;28;20737;-74
2022/07/21 03:19:54;;;;;;;11.10;7.55;;;;;;;17.57;100.00;96832.09;4974716;28;20066;-74
2022/07/21 03:22:19;;;;;;;10.52;7.75;;;;;;;17.60;100.00;96839.66;4976110;28;20441;-74
2022/07/21 03:24:45;;;;;;;10.27;7.65;;;;;;;17.53;100.00;96821.84;4975046;28;20080;-74
2022/07/21 03:27:10;;;;;;;11.25;7.45;;;;;;;17.60;100.00;96824.22;4972962;28;20041;-74
2022/07/21 03:29:36;;;;;;;13.77;8.65;;;;;;;17.61;100.00;96835.84;4974364;28;20042;-74
2022/07/21 03:32:01;;;;;;;9.32;7.40;;;;;;;17.57;100.00;96830.19;4974664;28;20513;-74
2022/07/21 03:34:27;;;;;;;12.32;8.20;;;;;;;17.54;100.00;96842.38;4975625;28;20038;-74
2022/07/21 03:36:52;;;;;;;10.77;7.80;;;;;;;17.44;100.00;96845.19;4972825;28;20070;-74
2022/07/21 03:39:17;;;;;;;12.65;8.82;;;;;;;17.38;100.00;96827.38;4973750;28;20477;-74
2022/07/21 03:41:43;;;;;;;12.90;8.80;;;;;;;17.36;100.00;96840.38;4974874;28;20046;-74
2022/07/21 03:44:08;;;;;;;12.63;8.45;;;;;;;17.49;100.00;96844.31;4973000;28;20072;-74
2022/07/21 03:46:34;;;;;;;11.82;8.70;;;;;;;17.50;100.00;96835.91;4974614;28;20121;-74
2022/07/21 03:48:59;;;;;;;13.52;8.65;;;;;;;17.54;100.00;96836.97;4972489;28;20069;-74
2022/07/21 03:51:25;;;;;;;14.80;9.35;;;;;;;17.46;100.00;96837.59;4974305;28;20486;-74
2022/07/21 03:53:50;;;;;;;14.77;8.50;;;;;;;17.39;100.00;96839.81;4972643;28;20054;-74
2022/07/21 03:56:16;;;;;;;11.15;8.35;;;;;;;17.31;100.00;96842.31;4973997;28;20122;-74
2022/07/21 03:58:41;;;;;;;13.90;9.25;;;;;;;17.37;100.00;96850.09;4955746;28;20058;-74
2022/07/21 04:01:06;;;;;;;13.90;8.90;;;;;;;17.35;100.00;96852.25;4973581;28;20566;-74
2022/07/21 04:03:33;;;;;;;11.43;8.60;;;;;;;17.38;100.00;96853.63;4972809;28;20038;-74
2022/07/21 04:05:59;;;;;;;16.70;10.30;;;;;;;17.45;100.00;96848.69;4973594;28;20200;-74
2022/07/21 04:08:25;;;;;;;14.90;10.32;;;;;;;17.49;100.00;96853.25;4973166;28;20558;-74
2022/07/21 04:10:51;;;;;;;13.40;9.40;;;;;;;17.50;100.00;96852.16;4973029;28;20046;-74
2022/07/21 04:13:17;;;;;;;12.95;9.20;;;;;;;17.54;100.00;96850.50;4972031;28;20097;-74
2022/07/21 04:15:42;;;;;;;12.20;9.00;;;;;;;17.51;100.00;96848.38;4970832;28;20120;-74
2022/07/21 04:18:09;;;;;;;14.52;10.45;;;;;;;17.53;100.00;96853.50;4949514;28;20501;-75
2022/07/21 04:20:35;;;;;;;12.68;9.07;;;;;;;17.56;100.00;96844.81;4956180;28;20065;-74
2022/07/21 04:23:01;;;;;;;17.17;10.07;;;;;;;17.40;100.00;96859.53;4971154;28;20243;-74
2022/07/21 04:25:26;;;;;;;19.00;9.73;;;;;;;17.39;100.00;96853.34;4972444;28;20042;-74
2022/07/21 04:27:52;;;;;;;14.07;9.40;;;;;;;17.36;100.00;96847.69;4955236;28;20128;-74
2022/07/21 04:30:21;;;;;;;10.85;7.90;;;;;;;17.32;100.00;96858.25;4972412;28;20061;-74
2022/07/21 04:32:47;;;;;;;14.55;8.57;;;;;;;17.22;100.00;96861.03;4973262;28;20481;-74
2022/07/21 04:35:13;;;;;;;12.68;8.88;;;;;;;17.38;100.00;96859.84;4974020;28;20374;-74
2022/07/21 04:37:39;;;;;;;12.80;8.45;;;;;;;17.38;100.00;96859.03;4940652;28;20030;-74
2022/07/21 04:40:08;;;;;;;11.07;8.18;;;;;;;17.53;100.00;96854.31;4972761;28;20146;-74
2022/07/21 04:42:34;;;;;;;13.50;8.90;;;;;;;17.37;100.00;96852.81;4973945;28;20120;-74
2022/07/21 04:44:59;;;;;;;14.10;7.45;;;;;;;17.41;100.00;96856.56;4974791;28;20640;-74
2022/07/21 04:47:25;;;;;;;13.27;7.00;;;;;;;17.35;100.00;96860.38;4973310;28;20177;-74
2022/07/21 04:49:50;;;;;;;11.57;6.25;;;;;;;17.40;100.00;96856.84;4972443;28;20122;-74
2022/07/21 04:52:16;;;;;;;10.70;6.95;;;;;;;17.47;100.00;96863.53;4972935;28;20181;-74
2022/07/21 04:54:41;;;;;;;8.52;6.22;;;;;;;17.56;100.00;96866.44;4974769;28;20105;-74
2022/07/21 04:57:07;;;;;;;10.38;6.63;;;;;;;17.54;100.00;96871.34;4973489;28;20514;-74
2022/07/21 04:59:34;;;;;;;11.40;6.80;;;;;;;17.38;100.00;96867.94;4973787;28;20401;-74
2022/07/21 05:02:03;;;;;;;10.35;6.43;;;;;;;17.39;100.00;96877.69;4973205;28;20038;-74
2022/07/21 05:04:29;;;;;;;10.10;6.78;;;;;;;17.31;100.00;96877.47;4972189;28;20348;-74
2022/07/21 05:06:55;;;;;;;8.93;6.18;;;;;;;17.38;100.00;96876.06;4974907;28;20068;-74
2022/07/21 05:09:21;;;;;;;10.77;6.28;;;;;;;17.31;100.00;96870.16;4954161;28;20494;-74
2022/07/21 05:11:46;;;;;;;10.85;6.57;;;;;;;17.15;100.00;96874.06;4972594;28;20039;-74
2022/07/21 05:14:11;;;;;;;10.18;6.30;;;;;;;17.00;100.00;96877.66;4972819;28;20557;-74
2022/07/21 05:16:37;;;;;;;11.88;6.57;;;;;;;17.17;100.00;96880.00;4972179;28;20283;-74
2022/07/21 05:19:03;;;;;;;9.57;6.43;;;;;;;17.22;100.00;96882.66;4972275;28;20153;-74
2022/07/21 05:21:29;;;;;;;10.50;6.88;;;;;;;17.27;100.00;96871.78;4973340;28;20050;-75
2022/07/21 05:23:54;;;;;;;10.07;6.13;;;;;;;17.33;100.00;96878.78;4974266;28;20047;-74
2022/07/21 05:26:20;;;;;;;9.52;6.60;;;;;;;17.20;100.00;96876.75;4972736;28;20051;-74
2022/07/21 05:28:45;;;;;;;10.38;6.88;;;;;;;17.19;100.00;96885.91;4973526;28;20332;-73
2022/07/21 05:31:11;;;;;;;8.57;5.65;;;;;;;16.93;100.00;96885.25;4968752;28;20046;-73
2022/07/21 05:33:36;;;;;;;11.52;6.28;;;;;;;17.10;100.00;96885.69;4971897;28;20046;-73
2022/07/21 05:36:03;;;;;;;9.30;6.93;;;;;;;17.08;100.00;96893.28;4974046;28;20108;-74
2022/07/21 05:38:29;;;;;;;10.93;7.28;;;;;;;17.03;100.00;96897.91;4947709;28;20039;-73
2022/07/21 05:40:55;;;;;;;10.35;6.47;;;;;;;17.03;100.00;96895.22;4973210;28;20067;-74
2022/07/21 05:43:20;;;;;;;11.20;6.93;;;;;;;17.02;100.00;96897.09;4975942;28;20046;-74
2022/07/21 05:45:45;;;;;;;11.05;6.63;;;;;;;17.21;100.00;96891.88;4974616;28;20050;-74
2022/07/21 05:48:11;;;;;;;12.85;7.68;;;;;;;17.44;100.00;96880.34;4958154;28;20477;-74
2022/07/21 05:50:36;;;;;;;14.70;7.70;;;;;;;17.47;100.00;96884.38;4976573;28;20348;-74
2022/07/21 05:53:02;;;;;;;10.85;7.32;;;;;;;17.53;100.00;96891.38;4960901;28;20049;-74
2022/07/21 05:55:27;;;;;;;12.98;7.45;;;;;;;17.42;100.00;96898.75;4976616;28;20115;-74
2022/07/21 05:57:53;;;;;;;15.82;8.93;;;;;;;17.59;100.00;96898.38;4977193;28;20050;-74
2022/07/21 06:00:18;;;;;;;12.18;7.90;;;;;;;17.45;100.00;96897.38;4975431;28;20038;-74
2022/07/21 06:02:45;;;;;;;11.10;7.90;;;;;;;17.75;100.00;96905.31;4976080;28;20800;-74
2022/07/21 06:05:11;;;;;;;12.63;7.85;;;;;;;17.86;100.00;96911.44;4975718;28;20042;-74
2022/07/21 06:07:38;;;;;;;12.25;8.45;;;;;;;17.54;100.00;96912.72;4975199;28;20058;-74
2022/07/21 06:10:07;;;;;;;13.43;8.18;;;;;;;17.64;100.00;96921.84;4976794;28;20050;-74
2022/07/21 06:12:32;;;;;;;12.98;8.05;;;;;;;17.64;100.00;96916.44;4976145;28;20034;-74
2022/07/21 06:14:58;;;;;;;11.50;7.80;;;;;;;17.81;100.00;96914.97;4959935;28;20486;-74
2022/07/21 06:17:23;;;;;;;9.70;7.20;;;;;;;18.00;100.00;96919.72;4975630;28;20628;-74
2022/07/21 06:19:49;;;;;;;12.50;8.25;;;;;;;18.01;100.00;96921.31;4976547;28;20555;-74
2022/07/21 06:22:15;;;;;;;14.80;8.27;;;;;;;18.17;100.00;96917.38;4961529;28;20485;-74
2022/07/21 06:24:41;;;;;;;13.40;8.00;;;;;;;17.96;100.00;96926.78;4959136;28;20042;-74
2022/07/21 06:27:06;;;;;;;13.10;8.32;;;;;;;18.11;100.00;96915.81;4976081;28;20178;-74
2022/07/21 06:29:32;;;;;;;13.98;7.53;;;;;;;17.93;100.00;96920.03;4958704;28;20053;-74
2022/07/21 06:31:57;;;;;;;16.33;7.88;;;;;;;17.94;100.00;96926.25;4976385;28;20403;-74
2022/07/21 06:34:23;;;;;;;13.70;8.02;;;;;;;17.87;100.00;96920.34;4977289;28;20050;-74
2022/07/21 06:36:48;;;;;;;12.05;8.57;;;;;;;17.64;100.00;96911.03;4973618;28;20420;-74
2022/07/21 06:39:14;;;;;;;12.98;8.07;;;;;;;17.57;100.00;96924.06;4974492;28;20081;-74
2022/07/21 06:41:40;;;;;;;10.85;8.15;;;;;;;17.92;100.00;96933.88;4977126;28;20041;-74
2022/07/21 06:44:11;;;;;;;11.00;7.80;;;;;;;18.37;100.00;96930.72;4959387;28;20528;-74
2022/07/21 06:46:37;;;;;;;14.85;8.00;;;;;;;18.40;100.00;96923.13;4978033;28;20709;-74
2022/07/21 06:49:03;;;;;;;12.60;8.02;;;;;;;18.31;100.00;96914.81;4976850;28;20485;-74
2022/07/21 06:51:29;;;;;;;13.73;8.45;;;;;;;18.47;100.00;96924.38;4977579;28;20363;-74
2022/07/21 06:53:55;;;;;;;13.23;8.10;;;;;;;18.79;100.00;96917.56;4977411;28;20090;-74
2022/07/21 06:56:21;;;;;;;10.15;6.97;;;;;;;18.66;100.00;96916.34;4977344;28;20151;-74
2022/07/21 06:58:47;;;;;;;12.90;7.88;;;;;;;18.48;100.00;96920.56;4957125;28;20037;-74
2022/07/21 07:01:16;;;;;;;13.73;7.50;;;;;;;18.81;100.00;96915.34;4960372;28;20179;-74
2022/07/21 07:03:42;;;;;;;11.27;7.03;;;;;;;18.77;100.00;96907.00;4976904;28;20030;-74
2022/07/21 07:06:08;;;;;;;11.00;7.55;;;;;;;18.31;100.00;96910.19;4975728;28;20719;-74
2022/07/21 07:08:33;;;;;;;11.98;6.60;;;;;;;18.31;100.00;96921.03;4977816;28;20076;-74
2022/07/21 07:10:59;;;;;;;9.00;6.70;;;;;;;17.98;100.00;96925.41;4976227;28;20451;-74
2022/07/21 07:13:24;;;;;;;10.40;6.43;;;;;;;18.01;100.00;96916.72;4960011;28;20038;-74
2022/07/21 07:15:50;;;;;;;10.32;6.28;;;;;;;18.15;100.00;96913.34;4976137;28;20276;-74
2022/07/21 07:18:15;;;;;;;9.15;5.80;;;;;;;18.75;100.00;96917.31;4977375;28;20141;-74
2022/07/21 07:20:41;;;;;;;9.75;5.00;;;;;;;18.73;100.00;96910.56;4977960;28;20044;-74
2022/07/21 07:23:07;;;;;;;11.23;5.88;;;;;;;18.93;100.00;96921.16;4974032;28;20276;-74
2022/07/21 07:25:32;;;;;;;8.05;5.80;;;;;;;18.81;100.00;96916.16;4973484;28;20133;-74
2022/07/21 07:27:58;;;;;;;15.00;6.90;;;;;;;18.97;100.00;96913.25;4957791;28;20051;-74
2022/07/21 07:30:24;;;;;;;11.02;7.00;;;;;;;18.76;100.00;96910.81;4973096;28;20042;-74
2022/07/21 07:32:49;;;;;;;13.85;6.28;;;;;;;18.61;100.00;96905.53;4976573;28;20046;-74
2022/07/21 07:35:15;;;;;;;11.45;6.72;;;;;;;18.78;100.00;96907.81;4958972;28;20607;-74
2022/07/21 07:37:42;;;;;;;11.20;6.57;;;;;;;19.00;100.00;96905.34;4977645;28;20038;-74
2022/07/21 07:40:12;;;;;;;12.38;6.10;;;;;;;18.89;100.00;96893.81;4974689;28;20391;-74
2022/07/21 07:42:38;;;;;;;8.18;5.90;;;;;;;18.89;100.00;96899.25;4975429;28;20045;-74
2022/07/21 07:45:06;;;;;;;13.05;6.60;;;;;;;18.99;100.00;96902.91;4975251;28;20042;-74
2022/07/21 07:47:32;;;;;;;10.23;6.13;;;;;;;19.10;100.00;96886.22;4976869;28;20046;-74
2022/07/21 07:49:58;;;;;;;10.90;6.68;;;;;;;19.53;100.00;96894.25;4975607;28;20046;-74
2022/07/21 07:52:23;;;;;;;13.07;6.95;;;;;;;19.52;100.00;96887.22;4976178;28;20046;-74
2022/07/21 07:54:49;;;;;;;9.65;5.35;;;;;;;19.21;100.00;96901.25;4975538;28;20081;-74
2022/07/21 07:57:14;;;;;;;8.93;6.32;;;;;;;19.18;100.00;96907.28;4975444;28;20235;-74
2022/07/21 07:59:40;;;;;;;9.15;6.32;;;;;;;18.87;100.00;96906.06;4976783;28;20185;-74
2022/07/21 08:02:05;;;;;;;9.15;6.18;;;;;;;18.96;100.00;96908.94;4975311;28;20237;-74
2022/07/21 08:04:31;;;;;;;12.10;6.57;;;;;;;19.08;100.00;96902.00;4976117;28;20038;-74
2022/07/21 08:06:56;;;;;;;9.80;7.03;;;;;;;19.48;100.00;96906.03;4975170;28;20045;-74
2022/07/21 08:09:22;;;;;;;9.10;6.50;;;;;;;19.78;100.00;96916.75;4976253;28;20065;-72
2022/07/21 08:11:48;;;;;;;9.35;6.03;;;;;;;19.88;100.00;96908.41;4975337;28;20061;-74
2022/07/21 08:14:14;;;;;;;11.25;5.88;;;;;;;19.89;100.00;96910.03;4977349;28;20081;-74
2022/07/21 08:16:40;;;;;;;9.57;5.82;;;;;;;19.93;100.00;96916.50;4976446;28;20045;-74
2022/07/21 08:19:06;;;;;;;11.07;6.32;;;;;;;19.78;100.00;96925.69;4976003;28;20434;-74
2022/07/21 08:21:33;;;;;;;9.88;6.25;;;;;;;20.12;100.00;96921.88;4976686;28;20066;-74
2022/07/21 08:24:00;;;;;;;9.38;5.90;;;;;;;19.72;100.00;96922.25;4972558;28;20560;-74
2022/07/21 08:26:25;;;;;;;12.77;6.13;;;;;;;19.90;100.00;96917.06;4957132;28;20402;-74
2022/07/21 08:28:52;;;;;;;11.00;6.43;;;;;;;19.88;100.00;96927.44;4974676;28;20046;-74
2022/07/21 08:31:18;;;;;;;12.98;6.43;;;;;;;20.15;100.00;96913.91;4975157;28;20111;-74
2022/07/21 08:33:43;;;;;;;11.07;6.32;;;;;;;20.77;100.00;96922.56;4976362;28;20046;-74
2022/07/21 08:36:10;;;;;;;11.73;6.43;;;;;;;20.96;100.00;96918.94;4975045;28;20034;-74
2022/07/21 08:38:35;;;;;;;11.27;6.70;;;;;;;21.01;100.00;96907.94;4976091;28;20133;-74
2022/07/21 08:41:01;;;;;;;10.20;6.95;;;;;;;20.89;100.00;96908.47;4975232;28;20156;-74
2022/07/21 08:43:27;;;;;;;12.57;6.72;;;;;;;21.27;100.00;96911.75;4974608;28;20461;-74
2022/07/21 08:45:53;;;;;;;11.57;6.95;;;;;;;21.15;100.00;96904.06;4955673;28;20108;-74
2022/07/21 08:48:23;;;;;;;10.10;5.82;;;;;;;20.77;100.00;96894.56;4975827;28;20042;-74
2022/07/21 08:50:49;;;;;;;9.18;6.25;;;;;;;20.76;100.00;96896.47;4974683;28;20261;-74
2022/07/21 08:53:15;;;;;;;10.52;5.45;;;;;;;20.34;100.00;96902.19;4974066;28;20137;-74
2022/07/21 08:55:40;;;;;;;13.00;6.63;;;;;;;20.08;100.00;96909.97;4975425;28;20030;-74
2022/07/21 08:58:11;;;;;;;10.93;6.65;;;;;;;20.42;100.00;96913.16;4973675;28;20236;-74
2022/07/21 09:00:39;;;;;;;9.20;6.07;;;;;;;20.43;100.00;96903.09;4957914;28;20034;-74
2022/07/21 09:03:10;;;;;;;8.10;6.15;;;;;;;21.45;100.00;96904.53;4930466;28;20245;-74
2022/07/21 09:05:36;;;;;;;11.38;6.65;;;;;;;21.81;100.00;96887.38;4975391;28;20290;-74
2022/07/21 09:08:01;;;;;;;10.20;6.05;;;;;;;21.73;100.00;96902.53;4975078;28;20480;-74
2022/07/21 09:10:29;;;;;;;11.15;6.35;;;;;;;21.97;100.00;96896.78;4974866;28;20061;-74
2022/07/21 09:12:58;;;;;;;12.15;6.60;;;;;;;21.94;100.00;96892.75;4975266;28;20034;-74
2022/07/21 09:15:26;;;;;;;13.27;6.47;;;;;;;21.72;100.00;96891.97;4972769;28;20050;-74
2022/07/21 09:18:15;;;;;;;9.30;5.70;;;;;;;21.72;100.00;96886.50;4978798;28;20496;-74
2022/07/21 09:20:53;;;;;;;9.20;6.10;;;;;;;21.87;100.00;96891.59;4978836;28;20409;-74
2022/07/21 09:23:21;;;;;;;9.27;5.60;;;;;;;21.90;100.00;96905.38;4959308;28;20042;-75
2022/07/21 09:25:52;;;;;;;10.75;5.18;;;;;;;22.28;100.00;96894.09;4976756;28;20030;-75
2022/07/21 09:28:22;;;;;;;7.72;5.32;;;;;;;22.36;100.00;96904.22;4978377;28;20575;-74
2022/07/21 09:31:14;;;;;;;10.45;5.55;;;;;;;21.97;100.00;96911.19;4978178;28;20045;-75
2022/07/21 09:33:44;;;;;;;7.53;5.03;;;;;;;22.27;100.00;96902.59;4979190;28;20038;-75
2022/07/21 09:36:17;;;;;;;8.00;5.32;;;;;;;21.31;100.00;96918.19;4977637;28;20483;-74
2022/07/21 09:38:58;;;;;;;10.02;5.57;;;;;;;20.95;100.00;96909.16;4979619;28;20439;-74
2022/07/21 09:41:26;;;;;;;6.03;4.03;;;;;;;20.09;100.00;96919.75;4960159;28;20051;-74
2022/07/21 09:43:53;;;;;;;6.57;4.00;;;;;;;19.67;100.00;96913.34;4978851;28;20042;-74
2022/07/21 09:46:23;;;;;;;7.47;4.07;;;;;;;19.45;100.00;96928.34;4977736;28;20065;-74
2022/07/21 09:48:52;;;;;;;8.33;4.40;;;;;;;19.16;100.00;96916.81;4959072;28;20097;-75
2022/07/21 09:51:44;;;;;;;7.82;4.97;;;;;;;19.02;100.00;96927.56;4976927;28;20355;-74
2022/07/21 09:54:12;;;;;;;7.20;4.03;;;;;;;18.87;100.00;96923.13;4971205;28;20058;-74
2022/07/21 09:56:41;;;;;;;7.00;4.28;;;;;;;19.81;100.00;96916.94;4976518;28;20402;-74
2022/07/21 09:59:10;;;;;;;5.85;3.72;;;;;;;20.51;100.00;96910.56;4977730;28;20046;-74
2022/07/21 10:01:36;;;;;;;7.65;3.80;;;;;;;20.86;100.00;96915.31;4978078;28;20244;-75
2022/07/21 10:04:03;;;;;;;5.55;3.40;;;;;;;21.40;100.00;96916.38;4977723;28;20038;-74
2022/07/21 10:06:37;;;;;;;8.55;4.90;;;;;;;22.05;100.00;96919.72;4977092;28;20030;-75
2022/07/21 10:09:07;;;;;;;9.90;4.90;;;;;;;22.63;100.00;96903.22;4959638;28;20066;-74
2022/07/21 10:11:33;;;;;;;7.68;5.40;;;;;;;22.60;100.00;96903.06;4977053;28;20442;-75
2022/07/21 10:13:59;;;;;;;9.10;5.28;;;;;;;23.10;100.00;96900.00;4979104;28;20046;-74
2022/07/21 10:16:25;;;;;;;12.63;5.30;;;;;;;22.96;100.00;96883.78;4976362;28;20038;-75
2022/07/21 10:19:12;;;;;;;8.23;5.47;;;;;;;22.91;100.00;96906.56;4975820;28;20093;-75
2022/07/21 10:22:16;;;;;;;10.80;5.25;;;;;;;23.28;100.00;96893.47;4961884;28;20394;-75
2022/07/21 10:24:42;;;;;;;9.68;5.15;;;;;;;23.32;100.00;96891.69;4978776;28;20042;-75
2022/07/21 10:27:13;;;;;;;10.65;5.50;;;;;;;23.15;100.00;96894.41;4959821;28;20046;-75
2022/07/21 10:30:05;;;;;;;8.45;5.03;;;;;;;23.86;100.00;96892.19;4956001;28;20039;-74
2022/07/21 10:32:36;;;;;;;9.50;5.10;;;;;;;24.00;100.00;96890.09;4630986;28;9999750;-74
2022/07/21 10:35:26;;;;;;;8.50;5.25;;;;;;;23.72;100.00;96889.63;4976533;28;20512;-75
2022/07/21 10:37:52;;;;;;;8.35;5.30;;;;;;;23.98;100.00;96886.09;4974799;28;20068;-75
2022/07/21 10:40:18;;;;;;;7.85;5.05;;;;;;;24.98;100.00;96891.00;4974393;28;20725;-75
2022/07/21 10:42:43;;;;;;;6.70;3.80;;;;;;;24.25;100.00;96902.06;4976358;28;20096;-74
2022/07/21 10:45:38;;;;;;;7.43;3.63;;;;;;;23.43;100.00;96901.19;4973818;28;20505;-74
2022/07/21 10:48:07;;;;;;;7.32;3.97;;;;;;;24.10;100.00;96895.19;4975276;28;20257;-74
2022/07/21 10:50:41;;;;;;;7.50;4.15;;;;;;;23.96;100.00;96889.13;4975181;28;20045;-74
2022/07/21 10:53:18;;;;;;;8.63;3.90;;;;;;;23.91;100.00;96889.31;4972782;28;20481;-75
2022/07/21 10:55:51;;;;;;;5.93;3.58;;;;;;;24.34;100.00;96886.47;4974530;28;20077;-74
2022/07/21 10:58:25;;;;;;;6.00;3.83;;;;;;;24.45;100.00;96876.81;4972407;28;20080;-75
2022/07/21 11:01:19;;;;;;;7.53;3.40;;;;;;;24.21;100.00;96903.88;4975642;28;20393;-75
2022/07/21 11:03:45;;;;;;;9.68;3.58;;;;;;;24.34;100.00;96881.00;4952091;28;20474;-75
2022/07/21 11:06:23;;;;;;;7.25;3.40;;;;;;;24.69;100.00;96894.56;4972541;28;20043;-75
2022/07/21 11:09:04;;;;;;;6.70;3.05;;;;;;;25.12;99.06;96885.31;4959638;28;20159;-75
2022/07/21 11:11:39;;;;;;;9.07;3.53;;;;;;;25.13;97.62;96876.78;4975453;28;20044;-75
2022/07/21 11:14:13;;;;;;;7.32;3.80;;;;;;;25.75;96.63;96869.72;4973851;28;20712;-72
2022/07/21 11:16:42;;;;;;;6.18;3.00;;;;;;;26.44;93.88;96884.69;4973226;28;20046;-72
2022/07/21 11:19:46;;;;;;;6.15;3.05;;;;;;;26.31;89.29;96884.66;4973662;28;20348;-72
2022/07/21 11:22:17;;;;;;;6.65;3.03;;;;;;;27.75;87.73;96871.53;4973803;28;20034;-72
2022/07/21 11:24:43;;;;;;;;;;;;;;;28.06;79.21;96886.53;4974127;28;20034;-75